CheckWX is a tool to help pilots better visualize weather data.  It is not intended as a substitute for an official pre-flight weather briefing.

18:20:34 UTC

KUIN TAF
Quincy Regional-Baldwin Field Airport
Quincy, Illinois, USA
KUIN 201733Z 2018/2118 17008KT P6SM SCT250 FM210500 17009KT P6SM SCT100 FM210700 18010KT P6SM VCSH BKN060 FM211000 18011KT 6SM -SHRA VCTS BKN025CB FM211500 19011G17KT P6SM BKN015

Sep-20@
18:00 UTC

Sep-20 @ 18:00 UTC

Sep-21@
05:00 UTC

Sep-21 @ 05:00 UTC

KUIN 201733Z 2018/2118 17008KT P6SM SCT250
Wind
  • 170° at 8 KTS
Cloud Levels
  • Scattered at 25,000' AGL

Sep-21@
05:00 UTC

Sep-21 @ 05:00 UTC

Sep-21@
07:00 UTC

Sep-21 @ 07:00 UTC

FM210500 17009KT P6SM SCT100

From

From Standard forecast or significant change

Wind
  • 170° at 9 KTS
Cloud Levels
  • Scattered at 10,000' AGL

Sep-21@
07:00 UTC

Sep-21 @ 07:00 UTC

Sep-21@
10:00 UTC

Sep-21 @ 10:00 UTC

FM210700 18010KT P6SM VCSH BKN060

From

From Standard forecast or significant change

Wind
  • 180° at 10 KTS
Cloud Levels
  • Broken at 6,000' AGL

Sep-21@
10:00 UTC

Sep-21 @ 10:00 UTC

Sep-21@
15:00 UTC

Sep-21 @ 15:00 UTC

FM211000 18011KT 6SM -SHRA VCTS BKN025CB

From

From Standard forecast or significant change

Wind
  • 180° at 11 KTS
Conditions
Light Rain, Area Thunderstorm
Cloud Levels
  • Broken at 2,500' AGL

Sep-21@
15:00 UTC

Sep-21 @ 15:00 UTC

Sep-21@
18:00 UTC

Sep-21 @ 18:00 UTC

FM211500 19011G17KT P6SM BKN015

From

From Standard forecast or significant change

Wind
  • 190° at 11 KTS
  • {Gusting to 17 KTS
Cloud Levels
  • Broken at 1,500' AGL